createdAt,value
2022-11-14T00:01:17.482Z,73.04
2022-11-14T00:04:02.588Z,72.91
2022-11-14T00:06:47.561Z,72.81
2022-11-14T00:09:32.781Z,72.89
2022-11-14T00:12:17.794Z,72.74
2022-11-14T00:15:03.124Z,72.75
2022-11-14T00:17:48.224Z,72.80
2022-11-14T00:20:33.263Z,72.71
2022-11-14T00:23:19.788Z,72.69
2022-11-14T00:26:04.771Z,72.62
2022-11-14T00:28:49.593Z,72.69
2022-11-14T00:31:34.548Z,72.56
2022-11-14T00:34:19.985Z,72.59
2022-11-14T00:37:05.604Z,72.50
2022-11-14T00:39:50.877Z,72.59
2022-11-14T00:42:35.867Z,72.46
2022-11-14T00:45:21.315Z,72.52
2022-11-14T00:48:06.563Z,72.57
2022-11-14T00:50:51.636Z,72.45
2022-11-14T00:53:37.036Z,72.45
2022-11-14T00:56:22.345Z,72.49
2022-11-14T00:59:07.792Z,72.38
2022-11-14T01:01:57.554Z,72.39
2022-11-14T01:04:43.054Z,72.48
2022-11-14T01:07:28.027Z,72.43
2022-11-14T01:10:13.089Z,72.48
2022-11-14T01:12:58.499Z,72.42
2022-11-14T01:15:47.757Z,72.30
2022-11-14T01:18:33.119Z,72.40
2022-11-14T01:21:18.449Z,72.44
2022-11-14T01:24:04.313Z,72.35
2022-11-14T01:26:49.266Z,72.28
2022-11-14T01:29:34.420Z,72.25
2022-11-14T01:32:19.356Z,72.24
2022-11-14T01:35:04.739Z,72.25
2022-11-14T01:37:49.919Z,72.30
2022-11-14T01:40:42.893Z,72.11
2022-11-14T01:43:36.430Z,72.23
2022-11-14T01:46:38.039Z,72.20
2022-11-14T01:49:44.302Z,72.10
2022-11-14T01:52:35.946Z,72.08
2022-11-14T01:55:21.071Z,72.31
2022-11-14T01:58:06.875Z,72.25
2022-11-14T02:00:52.181Z,72.30
2022-11-14T02:03:40.207Z,72.21
2022-11-14T02:06:29.049Z,72.18
2022-11-14T02:09:14.647Z,72.33
2022-11-14T02:12:02.581Z,72.27
2022-11-14T02:14:51.304Z,72.20
2022-11-14T02:17:36.633Z,72.21
2022-11-14T02:20:28.458Z,72.17
2022-11-14T02:23:14.928Z,72.16
2022-11-14T02:26:00.127Z,72.15
2022-11-14T02:28:45.770Z,72.11
2022-11-14T02:31:30.780Z,72.13
2022-11-14T02:34:19.926Z,71.96
2022-11-14T02:37:06.032Z,72.17
2022-11-14T02:39:51.117Z,72.27
2022-11-14T02:42:36.169Z,72.08
2022-11-14T02:45:21.308Z,72.12
2022-11-14T02:48:06.671Z,72.19
2022-11-14T02:50:51.621Z,72.36
2022-11-14T02:53:36.586Z,72.09
2022-11-14T02:56:21.799Z,72.15
2022-11-14T02:59:06.840Z,72.14
2022-11-14T03:01:51.819Z,72.20
2022-11-14T03:04:36.654Z,72.11
2022-11-14T03:07:21.963Z,72.13
2022-11-14T03:10:07.975Z,72.32
2022-11-14T03:12:55.330Z,72.01
2022-11-14T03:15:40.374Z,72.06
2022-11-14T03:18:25.315Z,72.15
2022-11-14T03:21:19.617Z,71.99
2022-11-14T03:24:04.684Z,71.97
2022-11-14T03:26:49.742Z,71.95
2022-11-14T03:29:34.663Z,72.08
2022-11-14T03:32:19.931Z,72.04
2022-11-14T03:35:05.404Z,72.00
2022-11-14T03:37:53.927Z,71.99
2022-11-14T03:40:41.633Z,72.04
2022-11-14T03:43:31.100Z,71.88
2022-11-14T03:46:16.074Z,71.88
2022-11-14T03:49:01.301Z,72.03
2022-11-14T03:51:46.653Z,71.85
2022-11-14T03:54:31.992Z,72.06
2022-11-14T03:57:17.364Z,71.98
2022-11-14T04:00:02.590Z,71.92
2022-11-14T04:02:48.135Z,71.95
2022-11-14T04:05:33.685Z,71.92
2022-11-14T04:08:18.502Z,71.79
2022-11-14T04:11:03.505Z,71.83
2022-11-14T04:13:48.380Z,71.94
2022-11-14T04:16:33.442Z,71.91
2022-11-14T04:19:18.788Z,71.96
2022-11-14T04:22:04.133Z,71.96
2022-11-14T04:24:49.287Z,71.91
2022-11-14T04:27:34.650Z,72.07
2022-11-14T04:30:19.965Z,71.81
2022-11-14T04:33:04.937Z,71.82
2022-11-14T04:35:50.101Z,71.79
2022-11-14T04:38:35.189Z,71.92
2022-11-14T04:41:20.263Z,71.84
2022-11-14T04:44:05.555Z,71.75
2022-11-14T04:46:51.619Z,71.85
2022-11-14T04:49:37.224Z,71.81
2022-11-14T04:52:22.542Z,71.77
2022-11-14T04:55:08.143Z,71.80
2022-11-14T04:57:58.043Z,71.63
2022-11-14T05:00:42.917Z,71.66
2022-11-14T05:03:28.081Z,71.58
2022-11-14T05:06:13.477Z,71.70
2022-11-14T05:08:58.556Z,71.63
2022-11-14T05:11:43.797Z,71.68
2022-11-14T05:14:28.706Z,71.67
2022-11-14T05:17:14.055Z,71.65
2022-11-14T05:19:59.237Z,71.73
2022-11-14T06:20:25.886Z,71.94
2022-11-14T06:23:11.136Z,72.25
2022-11-14T06:26:01.501Z,72.06
2022-11-14T06:28:47.079Z,71.94
2022-11-14T06:31:32.381Z,71.91
2022-11-14T06:34:17.688Z,71.87
2022-11-14T06:37:04.946Z,71.78
2022-11-14T06:39:50.147Z,71.76
2022-11-14T06:42:35.126Z,71.88
2022-11-14T06:45:20.067Z,71.69
2022-11-14T06:48:05.510Z,71.73
2022-11-14T06:50:55.241Z,71.70
2022-11-14T06:53:40.965Z,71.79
2022-11-14T06:56:26.279Z,71.75
2022-11-14T06:59:11.838Z,71.70
2022-11-14T07:01:57.076Z,71.55
2022-11-14T07:04:41.899Z,71.64
2022-11-14T07:07:28.725Z,71.58
2022-11-14T07:10:14.359Z,71.52
2022-11-14T07:12:59.585Z,71.52
2022-11-14T07:15:54.373Z,71.64
2022-11-14T07:18:39.456Z,71.52
2022-11-14T07:21:25.661Z,71.63
2022-11-14T07:24:10.517Z,71.42
2022-11-14T07:26:55.389Z,71.70
2022-11-14T07:29:40.765Z,71.55
2022-11-14T07:32:26.045Z,71.60
2022-11-14T07:35:11.098Z,71.66
2022-11-14T07:38:01.421Z,71.60
2022-11-14T07:40:59.515Z,71.64
2022-11-14T07:43:45.868Z,71.69
2022-11-14T07:46:31.201Z,71.64
2022-11-14T07:49:16.584Z,71.74
2022-11-14T07:52:01.749Z,71.66
2022-11-14T07:54:46.987Z,71.71
2022-11-14T07:57:35.530Z,71.76
2022-11-14T08:00:25.233Z,71.93
2022-11-14T08:03:10.823Z,71.63
2022-11-14T08:06:07.651Z,71.64
2022-11-14T08:08:52.845Z,71.76
2022-11-14T08:11:50.058Z,71.92
2022-11-14T08:14:35.312Z,71.83
2022-11-14T08:17:23.898Z,71.70
2022-11-14T08:20:09.638Z,71.82
2022-11-14T08:23:05.485Z,71.70
2022-11-14T08:25:50.653Z,71.74
2022-11-14T08:28:35.852Z,71.84
2022-11-14T08:31:21.985Z,71.83
2022-11-14T08:34:07.467Z,71.86
2022-11-14T08:36:52.235Z,71.77
2022-11-14T08:39:37.530Z,71.81
2022-11-14T08:42:22.599Z,71.71
2022-11-14T08:45:08.036Z,71.87
2022-11-14T08:47:53.672Z,72.06
2022-11-14T08:50:38.749Z,71.92
2022-11-14T08:53:24.207Z,72.24
2022-11-14T08:56:10.705Z,71.98
2022-11-14T08:58:56.056Z,71.89
2022-11-14T09:01:41.264Z,71.76
2022-11-14T09:04:26.312Z,71.88
2022-11-14T09:07:11.536Z,71.89
2022-11-14T09:09:56.907Z,71.91
2022-11-14T09:12:41.837Z,71.98
2022-11-14T09:15:30.258Z,71.78
2022-11-14T09:18:15.409Z,71.86
2022-11-14T09:21:06.665Z,71.88
2022-11-14T09:23:51.866Z,71.95
2022-11-14T09:26:37.406Z,71.99
2022-11-14T09:29:22.370Z,71.96
2022-11-14T09:32:08.005Z,71.99
2022-11-14T09:34:53.061Z,71.94
2022-11-14T09:37:37.989Z,71.95
2022-11-14T09:40:23.157Z,71.82
2022-11-14T09:43:59.115Z,71.86
2022-11-14T09:46:49.268Z,72.14
2022-11-14T09:49:45.175Z,71.88
2022-11-14T09:52:47.473Z,71.94
2022-11-14T09:55:37.063Z,71.94
2022-11-14T09:58:22.658Z,71.96
2022-11-14T10:01:29.844Z,71.86
2022-11-14T10:04:21.237Z,71.85
2022-11-14T10:07:25.859Z,71.73
2022-11-14T10:10:44.895Z,71.73
2022-11-14T10:13:48.548Z,71.91
2022-11-14T10:16:48.395Z,71.95
2022-11-14T10:19:53.135Z,71.84
2022-11-14T10:23:06.446Z,71.90
2022-11-14T10:25:55.242Z,72.00
2022-11-14T10:29:00.417Z,71.82
2022-11-14T10:32:04.164Z,72.09
2022-11-14T10:35:10.765Z,71.95
2022-11-14T10:38:14.165Z,71.94
2022-11-14T10:41:04.741Z,71.92
2022-11-14T10:43:51.729Z,72.01
2022-11-14T10:46:40.922Z,71.96
2022-11-14T10:49:26.432Z,71.90
2022-11-14T10:52:18.115Z,71.91
2022-11-14T10:55:17.995Z,71.77
2022-11-14T10:58:10.117Z,71.92
2022-11-14T11:00:55.690Z,71.81
2022-11-14T11:03:43.163Z,71.87
2022-11-14T11:06:29.294Z,71.76
2022-11-14T11:09:54.529Z,71.76
2022-11-14T11:12:51.615Z,71.79
2022-11-14T11:15:41.695Z,71.77
2022-11-14T11:18:31.290Z,71.64
2022-11-14T11:21:19.156Z,71.80
2022-11-14T11:24:04.653Z,71.69
2022-11-14T11:27:25.651Z,71.58
2022-11-14T11:30:25.158Z,71.58
2022-11-14T11:33:21.981Z,71.69
2022-11-14T11:36:18.787Z,71.69
2022-11-14T11:39:04.095Z,71.75
2022-11-14T11:42:08.861Z,71.56
2022-11-14T11:44:59.231Z,71.69
2022-11-14T11:47:58.665Z,71.52
2022-11-14T11:50:43.891Z,71.51
2022-11-14T11:53:34.721Z,71.50
2022-11-14T11:56:25.625Z,71.49
2022-11-14T11:59:26.509Z,71.41
2022-11-14T12:02:25.085Z,71.46
2022-11-14T12:05:49.436Z,71.46
2022-11-14T12:08:41.210Z,71.36
2022-11-14T12:11:27.925Z,71.45
2022-11-14T12:14:26.632Z,71.42
2022-11-14T12:17:11.753Z,71.53
2022-11-14T12:20:28.451Z,71.34
2022-11-14T12:23:39.670Z,71.25
2022-11-14T12:27:02.371Z,71.30
2022-11-14T12:29:56.531Z,71.22
2022-11-14T12:32:47.184Z,71.34
2022-11-14T12:35:34.865Z,71.36
2022-11-14T12:38:21.561Z,71.36
2022-11-14T12:41:07.587Z,71.17
2022-11-14T12:43:53.107Z,71.22
2022-11-14T12:47:06.673Z,71.10
2022-11-14T12:49:52.653Z,71.18
2022-11-14T12:52:43.831Z,71.07
2022-11-14T12:55:31.784Z,71.09
2022-11-14T12:58:37.907Z,71.17
2022-11-14T13:01:50.243Z,71.07
2022-11-14T13:04:42.799Z,71.06
2022-11-14T13:08:01.711Z,71.06
2022-11-14T13:10:46.836Z,71.15
2022-11-14T13:13:50.834Z,71.11
2022-11-14T13:16:54.677Z,71.05
2022-11-14T13:20:05.196Z,71.02
2022-11-14T13:22:50.406Z,71.01
2022-11-14T13:25:35.580Z,71.12
2022-11-14T13:28:36.304Z,70.92
2022-11-14T13:31:43.316Z,71.02
2022-11-14T13:34:46.299Z,71.01
2022-11-14T13:37:48.608Z,71.01
2022-11-14T13:40:38.775Z,71.21
2022-11-14T13:43:33.361Z,71.17
2022-11-14T13:47:03.810Z,70.98
2022-11-14T13:50:16.382Z,71.07
2022-11-14T13:53:01.830Z,71.16
2022-11-14T13:55:55.998Z,71.00
2022-11-14T13:59:01.987Z,71.04
2022-11-14T14:02:22.734Z,71.10
2022-11-14T14:05:49.704Z,70.86
2022-11-14T14:09:19.936Z,70.95
2022-11-14T14:12:31.007Z,71.07
2022-11-14T14:15:33.753Z,70.86
2022-11-14T14:18:30.641Z,71.10
2022-11-14T14:21:57.082Z,70.97
2022-11-14T14:25:02.128Z,71.11
2022-11-14T14:28:00.374Z,70.98
2022-11-14T14:31:07.748Z,70.98
2022-11-14T14:33:53.133Z,70.87
2022-11-14T14:36:49.416Z,70.86
2022-11-14T14:39:34.433Z,70.85
2022-11-14T14:42:19.526Z,70.98
2022-11-14T14:45:05.606Z,70.85
2022-11-14T14:48:03.958Z,70.97
2022-11-14T14:50:51.762Z,70.94
2022-11-14T14:53:36.648Z,70.84
2022-11-14T14:56:25.045Z,70.81
2022-11-14T14:59:22.727Z,70.67
2022-11-14T15:02:18.125Z,70.35
2022-11-14T15:05:03.752Z,70.60
2022-11-14T15:07:52.666Z,70.56
2022-11-14T15:10:38.937Z,70.58
2022-11-14T15:13:26.389Z,70.56
2022-11-14T15:16:11.545Z,70.53
2022-11-14T15:18:57.980Z,70.42
2022-11-14T15:21:43.356Z,70.34
2022-11-14T15:24:28.516Z,70.34
2022-11-14T15:27:16.009Z,70.24
2022-11-14T15:30:04.583Z,70.27
2022-11-14T15:32:52.020Z,70.16
2022-11-14T15:35:39.415Z,70.13
2022-11-14T15:41:32.052Z,70.07
2022-11-14T15:44:31.788Z,69.83
2022-11-14T15:47:34.366Z,69.98
2022-11-14T15:50:19.440Z,69.98
2022-11-14T15:53:14.710Z,70.14
2022-11-14T15:55:59.972Z,70.00
2022-11-14T15:58:49.201Z,70.07
2022-11-14T16:01:34.843Z,70.05
2022-11-14T16:04:32.541Z,69.88
2022-11-14T16:07:18.287Z,69.97
2022-11-14T16:10:04.134Z,69.97
2022-11-14T16:12:52.371Z,69.90
2022-11-14T16:15:37.671Z,70.15
2022-11-14T16:18:22.619Z,69.99
2022-11-14T16:21:13.803Z,70.05
2022-11-14T16:23:58.763Z,70.18
2022-11-14T16:26:43.995Z,70.15
2022-11-14T16:29:28.879Z,70.14
2022-11-14T16:32:14.227Z,70.17
2022-11-14T16:34:59.177Z,70.12
2022-11-14T16:37:44.743Z,70.11
2022-11-14T16:40:30.037Z,70.10
2022-11-14T16:43:15.197Z,70.16
2022-11-14T16:46:05.210Z,70.11
2022-11-14T16:48:50.344Z,70.28
2022-11-14T16:51:51.268Z,70.32
2022-11-14T16:54:36.654Z,70.36
2022-11-14T16:57:21.532Z,70.47
2022-11-14T17:00:09.366Z,70.19
2022-11-14T17:02:54.271Z,70.24
2022-11-14T17:05:46.805Z,70.29
2022-11-14T17:08:31.860Z,70.30
2022-11-14T17:11:16.878Z,70.29
2022-11-14T17:14:01.953Z,70.47
2022-11-14T17:16:47.042Z,70.33
2022-11-14T17:19:31.979Z,70.43
2022-11-14T17:22:18.553Z,70.34
2022-11-14T17:25:03.562Z,70.56
2022-11-14T17:27:51.476Z,70.53
2022-11-14T17:30:43.461Z,70.24
2022-11-14T17:33:29.266Z,70.59
2022-11-14T17:36:14.575Z,70.48
2022-11-14T17:38:59.651Z,70.53
2022-11-14T17:41:44.910Z,70.47
2022-11-14T17:44:30.053Z,70.56
2022-11-14T17:47:15.527Z,70.64
2022-11-14T17:50:00.674Z,70.65
2022-11-14T17:52:45.889Z,70.53
2022-11-14T17:55:31.146Z,70.62
2022-11-14T17:58:16.000Z,70.88
2022-11-14T18:01:01.184Z,70.92
2022-11-14T18:03:46.230Z,70.76
2022-11-14T18:06:32.900Z,70.88
2022-11-14T18:09:17.830Z,70.98
2022-11-14T18:12:03.241Z,70.76
2022-11-14T18:14:48.143Z,70.90
2022-11-14T18:17:33.046Z,70.85
2022-11-14T18:20:18.719Z,70.92
2022-11-14T18:23:04.117Z,70.98
2022-11-14T18:25:49.288Z,70.98
2022-11-14T18:28:34.497Z,71.13
2022-11-14T18:31:19.766Z,71.10
2022-11-14T18:34:05.394Z,71.09
2022-11-14T18:36:50.447Z,71.08
2022-11-14T18:39:36.174Z,71.09
2022-11-14T18:42:21.441Z,71.18
2022-11-14T18:45:07.130Z,71.01
2022-11-14T18:47:52.243Z,71.20
2022-11-14T18:50:37.014Z,71.05
2022-11-14T18:53:22.019Z,71.06
2022-11-14T18:56:09.968Z,71.11
2022-11-14T18:58:56.544Z,71.21
2022-11-14T19:01:41.731Z,70.98
2022-11-14T19:04:26.960Z,71.03
2022-11-14T19:07:12.357Z,71.12
2022-11-14T19:09:57.564Z,71.13
2022-11-14T19:12:42.867Z,71.11
2022-11-14T19:15:28.150Z,71.21
2022-11-14T19:18:13.054Z,71.32
2022-11-14T19:21:03.453Z,71.11
2022-11-14T19:23:50.448Z,71.37
2022-11-14T19:26:35.724Z,71.29
2022-11-14T19:29:20.739Z,71.09
2022-11-14T19:32:06.753Z,71.25
2022-11-14T19:34:51.825Z,71.11
2022-11-14T19:37:37.128Z,71.21
2022-11-14T19:40:22.045Z,71.21
2022-11-14T19:43:09.070Z,71.29
2022-11-14T19:45:56.103Z,71.27
2022-11-14T19:48:41.777Z,71.21
2022-11-14T19:51:28.400Z,71.16
2022-11-14T19:54:13.797Z,71.45
2022-11-14T19:56:58.521Z,71.54
2022-11-14T19:59:43.971Z,71.09
2022-11-14T20:02:29.507Z,71.26
2022-11-14T20:05:14.926Z,71.33
2022-11-14T20:08:00.136Z,71.23
2022-11-14T20:11:02.983Z,71.02
2022-11-14T20:13:48.576Z,71.11
2022-11-14T20:16:36.632Z,71.30
2022-11-14T20:19:21.724Z,71.21
2022-11-14T20:22:06.946Z,71.21
2022-11-14T20:24:51.840Z,71.35
2022-11-14T20:27:37.145Z,71.30
2022-11-14T20:30:22.371Z,71.29
2022-11-14T20:33:08.699Z,71.27
2022-11-14T20:35:53.637Z,70.97
2022-11-14T20:38:38.563Z,71.36
2022-11-14T20:41:25.103Z,71.38
2022-11-14T20:44:10.327Z,71.19
2022-11-14T20:46:57.135Z,71.22
2022-11-14T20:49:43.432Z,71.25
2022-11-14T20:52:28.655Z,71.30
2022-11-14T20:55:14.591Z,71.36
2022-11-14T20:57:59.503Z,71.38
2022-11-14T21:00:44.993Z,71.34
2022-11-14T21:03:30.517Z,71.21
2022-11-14T21:06:18.868Z,71.20
2022-11-14T21:09:03.811Z,71.40
2022-11-14T21:11:49.109Z,71.42
2022-11-14T21:14:34.253Z,71.38
2022-11-14T21:17:19.548Z,71.28
2022-11-14T21:20:05.098Z,71.39
2022-11-14T21:22:50.011Z,71.25
2022-11-14T21:25:35.783Z,71.33
2022-11-14T21:28:21.179Z,71.42
2022-11-14T21:31:37.203Z,71.19
2022-11-14T21:34:22.033Z,71.45
2022-11-14T21:37:06.925Z,71.45
2022-11-14T21:39:51.986Z,71.35
2022-11-14T21:42:39.601Z,71.40
2022-11-14T21:45:24.882Z,71.48
2022-11-14T21:48:09.881Z,71.36
2022-11-14T21:50:54.923Z,71.50
2022-11-14T21:53:40.867Z,71.34
2022-11-14T21:56:28.655Z,71.31
2022-11-14T21:59:18.369Z,71.55
2022-11-14T22:02:22.797Z,71.34
2022-11-14T22:05:08.078Z,71.48
2022-11-14T22:07:53.285Z,71.41
2022-11-14T22:10:38.434Z,71.36
2022-11-14T22:13:23.310Z,71.35
2022-11-14T22:16:09.535Z,71.30
2022-11-14T22:18:59.196Z,71.13
2022-11-14T22:21:46.869Z,71.16
2022-11-14T22:24:32.212Z,71.05
2022-11-14T22:27:18.458Z,71.47
2022-11-14T22:30:04.215Z,71.70
2022-11-14T22:32:49.303Z,71.51
2022-11-14T22:35:37.077Z,71.55
2022-11-14T22:38:22.019Z,71.51
2022-11-14T22:41:09.700Z,71.51
2022-11-14T22:43:55.707Z,71.39
2022-11-14T22:46:40.782Z,71.54
2022-11-14T22:49:25.935Z,71.46
2022-11-14T22:52:11.256Z,71.37
2022-11-14T22:54:56.377Z,71.51
2022-11-14T22:57:41.212Z,71.51
2022-11-14T23:00:26.043Z,71.53
2022-11-14T23:03:11.780Z,71.36
2022-11-14T23:05:58.865Z,71.46
2022-11-14T23:08:44.384Z,71.54
2022-11-14T23:11:31.858Z,71.41
2022-11-14T23:14:17.072Z,71.53
2022-11-14T23:17:02.964Z,71.46
2022-11-14T23:19:48.415Z,71.71
2022-11-14T23:22:33.249Z,71.38
2022-11-14T23:25:18.343Z,71.45
2022-11-14T23:28:03.814Z,71.48
2022-11-14T23:30:49.064Z,71.60
2022-11-14T23:33:35.101Z,71.68
2022-11-14T23:36:21.266Z,71.70
2022-11-14T23:39:06.512Z,71.70
2022-11-14T23:41:51.640Z,71.74
2022-11-14T23:44:36.906Z,71.74
2022-11-14T23:47:22.161Z,71.72
2022-11-14T23:50:07.665Z,71.87
2022-11-14T23:52:52.607Z,71.74
2022-11-14T23:55:38.077Z,71.88
2022-11-14T23:58:24.464Z,71.90
